| time (UTC) | temp F | wind direction | speed knots | gust knots | rain 1hr in | rain 24hr in | rain mn in | humidity % | barometer mb |
| 20260906043044 | 77 | 349 | 0.0 | 4.3 | 0.00 | 0.00 | 0.00 | 79 | 1008.7 |
| 20260906041545 | 77 | 8 | 0.0 | 5.2 | 0.00 | 0.00 | 0.00 | 79 | 1008.7 |
| 20260906040042 | 76 | 359 | 0.0 | 3.5 | 0.00 | 0.00 | 0.00 | 80 | 1008.9 |
| 20260906034541 | 76 | 15 | 0.0 | 0.9 | 0.00 | 0.00 | 0.00 | 80 | 1009.2 |
| 20260906033040 | 77 | 309 | 0.0 | 1.7 | 0.00 | 0.00 | 0.00 | 79 | 1009.3 |
| 20260906031604 | 77 | 34 | 0.0 | 7.8 | 0.00 | 0.00 | 0.00 | 78 | 1009.2 |
| 20260906030039 | 77 | 303 | 0.0 | 7.8 | 0.00 | 0.00 | 0.00 | 78 | 1008.9 |
| 20260906024542 | 77 | 290 | 1.7 | 9.6 | 0.00 | 0.00 | 0.00 | 78 | 1008.9 |
| 20260906023043 | 77 | 38 | 0.9 | 5.2 | 0.00 | 0.00 | 0.00 | 77 | 1008.9 |
| 20260906021534 | 77 | 53 | 0.0 | 5.2 | 0.00 | 0.00 | 0.00 | 76 | 1008.8 |
| 20260906020044 | 77 | 330 | 0.0 | 2.6 | 0.00 | 0.00 | 0.00 | 76 | 1008.7 |
| 20260906014533 | 77 | 11 | 0.0 | 0.9 | 0.00 | 0.00 | 0.00 | 75 | 1008.6 |
| 20260906013034 | 78 | 15 | 0.0 | 1.7 | 0.00 | 0.00 | 0.00 | 74 | 1008.8 |
| 20260906011532 | 78 | 343 | 0.0 | 0.9 | 0.00 | 0.00 | 0.00 | 73 | 1008.8 |
| 20260906010033 | 79 | 13 | 0.0 | 0.9 | 0.00 | 0.00 | 0.00 | 72 | 1008.6 |
| 20260906004531 | 78 | 47 | 0.0 | 2.6 | 0.00 | 0.00 | 0.00 | 72 | 1008.3 |
| 20260906003029 | 78 | 358 | 0.0 | 0.0 | 0.00 | 0.00 | 0.00 | 73 | 1008.2 |
| 20260906001539 | 78 | 1 | 0.0 | 1.7 | 0.00 | 0.00 | 0.00 | 73 | 1008.0 |
| 20260906000029 | 79 | 30 | 0.0 | 3.5 | 0.00 | 0.00 | 0.00 | 73 | 1007.7 |
| 20260905234531 | 78 | 291 | 0.0 | 1.7 | 0.00 | 0.00 | 0.00 | 72 | 1007.5 |
| 20260905233027 | 80 | 344 | 0.0 | 0.0 | 0.00 | 0.00 | 0.00 | 70 | 1007.7 |
| 20260905231534 | 81 | 333 | 0.0 | 0.0 | 0.00 | 0.00 | 0.00 | 68 | 1007.7 |
| 20260905230026 | 80 | 318 | 0.0 | 0.0 | 0.00 | 0.00 | 0.00 | 67 | 1007.7 |
| 20260905224526 | 79 | 314 | 0.0 | 0.9 | 0.00 | 0.00 | 0.00 | 69 | 1007.6 |
| 20260905223024 | 80 | 277 | 0.0 | 0.9 | 0.00 | 0.00 | 0.00 | 71 | 1007.5 |
| 20260905221524 | 81 | 301 | 0.0 | 0.0 | 0.00 | 0.00 | 0.00 | 67 | 1007.7 |
| 20260905220023 | 81 | 277 | 0.0 | 0.0 | 0.00 | 0.00 | 0.00 | 65 | 1007.5 |
| 20260905214521 | 78 | 340 | 0.0 | 0.0 | 0.00 | 0.00 | 0.00 | 71 | 1007.6 |
| 20260905213020 | 77 | 312 | 0.0 | 0.0 | 0.00 | 0.00 | 0.00 | 76 | 1007.8 |
| 20260905211517 | 77 | 332 | 0.0 | 3.5 | 0.00 | 0.00 | 0.00 | 72 | 1008.0 |
| 20260905210017 | 77 | 25 | 0.0 | 0.0 | 0.00 | 0.00 | 0.00 | 74 | 1008.2 |
| 20260905204518 | 77 | 65 | 0.0 | 0.9 | 0.00 | 0.00 | 0.00 | 72 | 1008.1 |
| 20260905203015 | 78 | 5 | 0.0 | 5.2 | 0.00 | 0.00 | 0.00 | 71 | 1008.2 |
| 20260905201513 | 78 | 348 | 0.0 | 4.3 | 0.00 | 0.00 | 0.00 | 69 | 1008.4 |
| 20260905200012 | 77 | 4 | 0.0 | 0.9 | 0.00 | 0.00 | 0.00 | 72 | 1008.5 |
| 20260905194512 | 77 | 323 | 0.0 | 0.0 | 0.00 | 0.00 | 0.00 | 72 | 1008.8 |
| 20260905193011 | 77 | 138 | 0.0 | 0.0 | 0.00 | 0.00 | 0.00 | 71 | 1009.0 |
| 20260905191510 | 76 | 328 | 0.0 | 5.2 | 0.00 | 0.00 | 0.00 | 71 | 1008.7 |
| 20260905190021 | 76 | 307 | 0.0 | 12.2 | 0.00 | 0.00 | 0.00 | 70 | 1009.1 |
| 20260905184510 | 77 | 321 | 2.6 | 15.6 | 0.00 | 0.00 | 0.00 | 74 | 1009.4 |
| 20260905183012 | 77 | 357 | 0.0 | 4.3 | 0.00 | 0.00 | 0.00 | 77 | 1008.7 |
| 20260905181507 | 80 | 49 | 0.0 | 0.9 | 0.00 | 0.00 | 0.00 | 76 | 1008.9 |
| 20260905180008 | 85 | 51 | 0.0 | 0.0 | 0.00 | 0.00 | 0.00 | 64 | 1008.8 |
| 20260905174506 | 87 | 212 | 0.0 | 0.0 | 0.00 | 0.00 | 0.00 | 60 | 1008.9 |
| 20260905173003 | 88 | 277 | 0.0 | 3.5 | 0.00 | 0.00 | 0.00 | 60 | 1009.0 |
| 20260905171502 | 90 | 263 | 0.0 | 5.2 | 0.00 | 0.00 | 0.00 | 57 | 1009.1 |
| 20260905170104 | 88 | 208 | 0.0 | 0.9 | 0.00 | 0.00 | 0.00 | 62 | 1009.3 |
| 20260905164603 | 87 | 321 | 0.0 | 1.7 | 0.00 | 0.00 | 0.00 | 62 | 1009.6 |
| 20260905163057 | 87 | 317 | 0.0 | 0.0 | 0.00 | 0.00 | 0.00 | 64 | 1009.9 |
| 20260905161558 | 87 | 348 | 0.0 | 0.9 | 0.00 | 0.00 | 0.00 | 65 | 1010.1 |
| 20260905160100 | 87 | 307 | 0.0 | 3.5 | 0.00 | 0.00 | 0.00 | 65 | 1010.1 |
| 20260905154601 | 87 | 308 | 0.0 | 1.7 | 0.00 | 0.00 | 0.00 | 63 | 1010.1 |
| 20260905153053 | 86 | 221 | 0.0 | 0.0 | 0.00 | 0.00 | 0.00 | 65 | 1010.1 |
| 20260905151550 | 85 | 242 | 0.0 | 0.0 | 0.00 | 0.00 | 0.00 | 67 | 1010.2 |
| 20260905150047 | 85 | 205 | 0.0 | 0.0 | 0.00 | 0.00 | 0.00 | 68 | 1010.2 |
| 20260905144544 | 83 | 270 | 0.0 | 0.9 | 0.00 | 0.00 | 0.00 | 70 | 1010.2 |
| 20260905143041 | 82 | 333 | 0.0 | 0.9 | 0.00 | 0.00 | 0.00 | 71 | 1010.3 |
| 20260905141537 | 81 | 37 | 0.0 | 3.5 | 0.00 | 0.00 | 0.00 | 72 | 1010.3 |
| 20260905140036 | 80 | 288 | 0.0 | 1.7 | 0.00 | 0.00 | 0.00 | 74 | 1010.3 |
| 20260905134534 | 79 | 316 | 0.0 | 2.6 | 0.00 | 0.00 | 0.00 | 76 | 1010.4 |
| 20260905133034 | 78 | 304 | 0.0 | 1.7 | 0.00 | 0.00 | 0.00 | 77 | 1010.4 |
| 20260905131532 | 77 | 214 | 0.0 | 2.6 | 0.00 | 0.00 | 0.00 | 78 | 1010.5 |
| 20260905130032 | 77 | 314 | 0.0 | 1.7 | 0.00 | 0.00 | 0.00 | 79 | 1010.4 |
| 20260905124532 | 76 | 335 | 0.0 | 1.7 | 0.00 | 0.00 | 0.00 | 79 | 1010.4 |
| 20260905123030 | 76 | 287 | 0.0 | 1.7 | 0.00 | 0.00 | 0.00 | 79 | 1010.2 |
| 20260905121529 | 76 | 298 | 0.0 | 1.7 | 0.00 | 0.00 | 0.00 | 79 | 1010.2 |
| 20260905120040 | 77 | 51 | 0.0 | 0.9 | 0.00 | 0.00 | 0.00 | 78 | 1010.2 |
| 20260905114528 | 77 | 345 | 0.0 | 0.9 | 0.00 | 0.00 | 0.00 | 77 | 1010.0 |
| 20260905113030 | 77 | 330 | 0.0 | 0.0 | 0.00 | 0.00 | 0.00 | 77 | 1009.8 |
| 20260905111551 | 77 | 345 | 0.0 | 3.5 | 0.00 | 0.00 | 0.00 | 77 | 1009.6 |
| 20260905110026 | 77 | 32 | 0.0 | 3.5 | 0.00 | 0.00 | 0.00 | 77 | 1009.3 |
| 20260905104525 | 77 | 8 | 0.0 | 3.5 | 0.00 | 0.00 | 0.00 | 77 | 1009.1 |
| 20260905103028 | 77 | 29 | 0.0 | 2.6 | 0.00 | 0.00 | 0.00 | 76 | 1009.1 |
| 20260905101523 | 77 | 314 | 0.0 | 5.2 | 0.00 | 0.00 | 0.00 | 76 | 1009.1 |
| 20260905100023 | 77 | 326 | 0.0 | 5.2 | 0.00 | 0.00 | 0.00 | 75 | 1009.0 |
| 20260905094522 | 77 | 325 | 0.0 | 4.3 | 0.00 | 0.00 | 0.00 | 75 | 1008.9 |
| 20260905093021 | 78 | 40 | 0.0 | 2.6 | 0.00 | 0.00 | 0.00 | 75 | 1008.9 |
| 20260905091524 | 78 | 314 | 0.0 | 4.3 | 0.00 | 0.00 | 0.00 | 75 | 1008.9 |
| 20260905090020 | 78 | 342 | 0.9 | 5.2 | 0.00 | 0.00 | 0.00 | 75 | 1008.9 |
| 20260905084518 | 77 | 25 | 0.0 | 5.2 | 0.00 | 0.00 | 0.00 | 76 | 1009.0 |
| 20260905083016 | 77 | 283 | 0.0 | 5.2 | 0.00 | 0.00 | 0.00 | 78 | 1009.2 |
| 20260905081514 | 77 | 30 | 0.9 | 5.2 | 0.00 | 0.00 | 0.00 | 78 | 1009.3 |
| 20260905080015 | 77 | 38 | 0.0 | 5.2 | 0.00 | 0.00 | 0.00 | 77 | 1009.6 |
| 20260905074513 | 78 | 354 | 0.0 | 3.5 | 0.00 | 0.00 | 0.00 | 75 | 1009.7 |
| 20260905073008 | 78 | 11 | 0.0 | 4.3 | 0.00 | 0.00 | 0.00 | 74 | 1009.8 |
| 20260905071506 | 78 | 15 | 0.0 | 0.9 | 0.00 | 0.00 | 0.00 | 71 | 1010.0 |
| 20260905070011 | 79 | 354 | 0.0 | 0.9 | 0.00 | 0.00 | 0.00 | 72 | 1010.2 |
| 20260905064511 | 79 | 126 | 0.0 | 0.0 | 0.00 | 0.00 | 0.00 | 72 | 1010.3 |
| 20260905063002 | 79 | 145 | 0.0 | 0.0 | 0.00 | 0.00 | 0.00 | 73 | 1010.4 |
| 20260905061600 | 79 | 181 | 0.0 | 0.0 | 0.00 | 0.00 | 0.00 | 73 | 1010.5 |
| 20260905060059 | 79 | 181 | 0.0 | 0.0 | 0.00 | 0.00 | 0.00 | 73 | 1010.6 |
| 20260905054558 | 79 | 256 | 0.0 | 0.0 | 0.00 | 0.00 | 0.00 | 72 | 1010.8 |
| 20260905053100 | 79 | 275 | 0.0 | 0.0 | 0.00 | 0.00 | 0.00 | 72 | 1010.9 |
| 20260905051556 | 79 | 257 | 0.0 | 0.0 | 0.00 | 0.00 | 0.00 | 74 | 1011.0 |
| 20260905050058 | 79 | 150 | 0.0 | 0.0 | 0.00 | 0.00 | 0.00 | 74 | 1011.0 |
| 20260905044554 | 79 | 150 | 0.0 | 0.0 | 0.00 | 0.00 | 0.00 | 73 | 1010.9 |